createdAt,value
2023-01-23T00:00:40.218Z,1.23
2023-01-23T00:01:35.141Z,1.23
2023-01-23T00:02:26.910Z,1.23
2023-01-23T00:03:19.008Z,1.25
2023-01-23T00:04:13.790Z,1.26
2023-01-23T00:05:06.129Z,1.25
2023-01-23T00:06:00.078Z,1.24
2023-01-23T00:06:52.259Z,1.25
2023-01-23T00:07:43.697Z,1.24
2023-01-23T00:08:35.983Z,1.23
2023-01-23T00:09:27.506Z,1.21
2023-01-23T00:10:19.476Z,1.18
2023-01-23T00:11:15.195Z,1.18
2023-01-23T00:12:06.938Z,1.24
2023-01-23T00:12:58.618Z,1.24
2023-01-23T00:13:50.837Z,1.26
2023-01-23T00:14:42.550Z,1.26
2023-01-23T00:15:34.528Z,1.29
2023-01-23T00:16:28.664Z,1.25
2023-01-23T00:17:20.173Z,1.23
2023-01-23T00:18:11.621Z,1.24
2023-01-23T00:19:03.124Z,1.22
2023-01-23T00:19:55.187Z,1.21
2023-01-23T00:20:46.711Z,1.20
2023-01-23T00:21:38.465Z,1.20
2023-01-23T00:22:30.425Z,1.15
2023-01-23T00:23:21.895Z,1.13
2023-01-23T00:24:13.484Z,1.14
2023-01-23T00:25:06.807Z,1.15
2023-01-23T00:26:06.320Z,1.16
2023-01-23T00:26:57.805Z,1.16
2023-01-23T00:27:49.361Z,1.19
2023-01-23T00:28:42.594Z,1.17
2023-01-23T00:29:34.090Z,1.18
2023-01-23T00:30:25.763Z,1.18
2023-01-23T00:31:21.106Z,1.14
2023-01-23T00:32:14.140Z,1.14
2023-01-23T00:33:05.684Z,1.16
2023-01-23T00:34:01.655Z,1.18
2023-01-23T00:34:53.328Z,1.16
2023-01-23T00:35:44.952Z,1.15
2023-01-23T00:36:38.848Z,1.14
2023-01-23T00:37:30.274Z,1.12
2023-01-23T00:38:21.813Z,1.10
2023-01-23T00:39:20.154Z,1.10
2023-01-23T00:40:13.231Z,1.08
2023-01-23T00:41:04.841Z,1.09
2023-01-23T00:41:57.198Z,1.10
2023-01-23T00:42:48.869Z,1.09
2023-01-23T00:43:42.239Z,1.10
2023-01-23T00:44:35.390Z,1.10
2023-01-23T00:45:27.073Z,1.09
2023-01-23T00:46:22.829Z,1.12
2023-01-23T00:47:14.366Z,1.12
2023-01-23T00:48:06.089Z,1.12
2023-01-23T00:48:57.877Z,1.12
2023-01-23T00:49:50.161Z,1.10
2023-01-23T00:50:41.704Z,1.12
2023-01-23T00:51:34.539Z,1.08
2023-01-23T00:52:27.596Z,1.06
2023-01-23T00:53:19.914Z,1.07
2023-01-23T00:54:11.660Z,1.05
2023-01-23T00:55:04.133Z,1.04
2023-01-23T00:55:55.702Z,1.03
2023-01-23T00:56:48.252Z,1.01
2023-01-23T00:57:39.975Z,1.04
2023-01-23T00:58:32.624Z,1.03
2023-01-23T00:59:24.624Z,1.01
2023-01-23T01:00:17.345Z,1.02
2023-01-23T01:01:09.723Z,1.01
2023-01-23T01:02:01.478Z,0.97
2023-01-23T01:02:53.057Z,1.01
2023-01-23T01:03:45.243Z,1.00
2023-01-23T01:04:37.177Z,1.04
2023-01-23T01:05:28.601Z,1.06
2023-01-23T01:06:20.297Z,1.05
2023-01-23T01:07:12.494Z,1.03
2023-01-23T01:08:05.405Z,1.03
2023-01-23T01:08:58.177Z,1.02
2023-01-23T01:09:51.427Z,1.03
2023-01-23T01:10:43.157Z,1.02
2023-01-23T01:11:34.613Z,1.00
2023-01-23T01:12:26.733Z,1.03
2023-01-23T01:13:21.198Z,1.08
2023-01-23T01:14:12.725Z,1.09
2023-01-23T01:15:05.727Z,1.08
2023-01-23T01:15:57.270Z,1.10
2023-01-23T01:16:48.924Z,1.10
2023-01-23T01:17:40.419Z,1.12
2023-01-23T01:18:32.717Z,1.13
2023-01-23T01:19:24.235Z,1.10
2023-01-23T01:20:21.500Z,1.09
2023-01-23T01:21:15.279Z,1.12
2023-01-23T01:22:06.962Z,1.13
2023-01-23T01:23:00.442Z,1.14
2023-01-23T01:23:51.944Z,1.14
2023-01-23T01:24:43.434Z,1.12
2023-01-23T01:25:35.449Z,1.11
2023-01-23T01:26:26.979Z,1.11
2023-01-23T01:27:18.692Z,1.10
2023-01-23T01:28:10.451Z,1.15
2023-01-23T01:29:02.404Z,1.22
2023-01-23T01:29:53.910Z,1.22
2023-01-23T01:30:45.549Z,1.21
2023-01-23T01:31:37.149Z,1.26
2023-01-23T01:32:28.654Z,1.25
2023-01-23T01:33:20.140Z,1.21
2023-01-23T01:34:13.858Z,1.18
2023-01-23T01:35:07.252Z,1.18
2023-01-23T01:35:58.926Z,1.20
2023-01-23T01:36:51.726Z,1.17
2023-01-23T01:37:43.835Z,1.19
2023-01-23T01:38:35.617Z,1.17
2023-01-23T01:39:27.162Z,1.17
2023-01-23T01:40:24.990Z,1.21
2023-01-23T01:41:17.430Z,1.21
2023-01-23T01:42:08.965Z,1.24
2023-01-23T01:43:04.847Z,1.23
2023-01-23T01:43:57.322Z,1.24
2023-01-23T01:45:01.437Z,1.22
2023-01-23T01:46:24.987Z,1.19
2023-01-23T01:47:16.449Z,1.20
2023-01-23T01:48:08.191Z,1.19
2023-01-23T01:49:07.465Z,1.19
2023-01-23T01:50:04.865Z,1.19
2023-01-23T01:50:59.353Z,1.21
2023-01-23T01:51:55.936Z,1.20
2023-01-23T01:52:48.336Z,1.18
2023-01-23T01:53:40.722Z,1.14
2023-01-23T01:54:32.342Z,1.13
2023-01-23T01:55:23.883Z,1.12
2023-01-23T01:56:18.567Z,1.10
2023-01-23T01:57:20.119Z,1.08
2023-01-23T01:58:13.931Z,1.06
2023-01-23T01:59:07.818Z,1.06
2023-01-23T02:00:18.134Z,1.07
2023-01-23T02:01:10.506Z,1.08
2023-01-23T02:02:14.513Z,1.05
2023-01-23T02:03:06.766Z,1.04
2023-01-23T02:04:00.356Z,1.03
2023-01-23T02:05:01.458Z,1.03
2023-01-23T02:05:53.361Z,1.01
2023-01-23T02:06:45.756Z,0.99
2023-01-23T02:07:46.933Z,0.98
2023-01-23T02:09:07.407Z,0.99
2023-01-23T02:10:03.905Z,0.96
2023-01-23T02:10:56.709Z,1.00
2023-01-23T02:11:49.904Z,1.04
2023-01-23T02:12:48.372Z,1.05
2023-01-23T02:13:42.825Z,1.03
2023-01-23T02:14:34.941Z,1.03
2023-01-23T02:15:27.499Z,1.03
2023-01-23T02:16:22.140Z,1.02
2023-01-23T02:17:13.821Z,1.03
2023-01-23T02:18:05.459Z,1.07
2023-01-23T02:19:07.235Z,1.12
2023-01-23T02:20:05.644Z,1.14
2023-01-23T02:21:03.589Z,1.16
2023-01-23T02:22:19.866Z,1.13
2023-01-23T02:24:10.001Z,1.12
2023-01-23T02:25:23.569Z,1.07
2023-01-23T02:26:25.080Z,1.10
2023-01-23T02:27:17.009Z,1.10
2023-01-23T02:28:10.702Z,1.08
2023-01-23T02:29:05.226Z,1.06
2023-01-23T02:30:06.049Z,1.05
2023-01-23T02:30:57.802Z,1.10
2023-01-23T02:31:52.794Z,1.11
2023-01-23T02:32:45.643Z,1.08
2023-01-23T02:33:37.229Z,1.06
2023-01-23T02:34:29.794Z,1.07
2023-01-23T02:35:30.472Z,1.03
2023-01-23T02:36:32.244Z,1.05
2023-01-23T02:37:31.824Z,1.06
2023-01-23T02:38:29.114Z,1.03
2023-01-23T02:39:21.488Z,1.01
2023-01-23T02:40:17.107Z,1.01
2023-01-23T02:41:13.735Z,0.99
2023-01-23T02:42:06.719Z,1.02
2023-01-23T02:43:21.323Z,1.08
2023-01-23T02:44:38.577Z,1.06
2023-01-23T02:45:31.829Z,1.07
2023-01-23T02:46:24.936Z,1.05
2023-01-23T02:47:16.414Z,1.03
2023-01-23T02:48:08.773Z,1.05
2023-01-23T02:49:02.473Z,1.03
2023-01-23T02:49:54.152Z,1.01
2023-01-23T02:50:46.572Z,0.99
2023-01-23T02:51:38.383Z,0.97
2023-01-23T02:52:31.857Z,0.99
2023-01-23T02:53:23.437Z,1.03
2023-01-23T02:54:17.431Z,1.01
2023-01-23T02:55:09.090Z,1.02
2023-01-23T02:56:00.928Z,1.05
2023-01-23T02:56:52.695Z,1.01
2023-01-23T02:57:47.244Z,1.00
2023-01-23T02:58:56.969Z,0.96
2023-01-23T03:00:07.411Z,0.93
2023-01-23T03:01:00.521Z,0.90
2023-01-23T03:01:53.375Z,0.91
2023-01-23T03:02:47.625Z,0.89
2023-01-23T03:03:42.164Z,0.86
2023-01-23T03:04:33.767Z,0.84
2023-01-23T03:05:25.506Z,0.81
2023-01-23T03:06:18.072Z,0.82
2023-01-23T03:07:13.851Z,0.79
2023-01-23T03:08:05.968Z,0.77
2023-01-23T03:08:59.768Z,0.78
2023-01-23T03:09:51.799Z,0.75
2023-01-23T03:10:43.297Z,0.71
2023-01-23T03:11:35.859Z,0.67
2023-01-23T03:12:28.941Z,0.62
2023-01-23T03:13:20.915Z,0.59
2023-01-23T03:14:16.315Z,0.57
2023-01-23T03:15:09.889Z,0.56
2023-01-23T03:16:01.504Z,0.58
2023-01-23T03:16:55.124Z,0.62
2023-01-23T03:17:49.717Z,0.61
2023-01-23T03:18:53.495Z,0.60
2023-01-23T03:19:45.949Z,0.62
2023-01-23T03:20:39.978Z,0.60
2023-01-23T03:21:33.201Z,0.65
2023-01-23T03:22:24.906Z,0.63
2023-01-23T03:23:16.923Z,0.62
2023-01-23T03:24:11.530Z,0.61
2023-01-23T03:25:03.091Z,0.60
2023-01-23T03:25:58.429Z,0.58
2023-01-23T03:26:53.702Z,0.54
2023-01-23T03:27:49.313Z,0.50
2023-01-23T03:28:59.390Z,0.46
2023-01-23T03:30:09.639Z,0.40
2023-01-23T03:31:01.602Z,0.33
2023-01-23T03:31:54.075Z,0.24
2023-01-23T03:32:46.742Z,0.19
2023-01-23T03:33:39.247Z,0.13
2023-01-23T03:34:32.117Z,0.09
2023-01-23T03:35:23.871Z,0.05
2023-01-23T03:36:18.205Z,-0.01
2023-01-23T03:37:12.237Z,-0.02
2023-01-23T03:38:04.931Z,-0.07
2023-01-23T03:39:14.846Z,-0.09
2023-01-23T03:40:25.816Z,-0.10
2023-01-23T03:41:27.358Z,-0.12
2023-01-23T03:42:23.956Z,-0.11
2023-01-23T03:43:17.602Z,-0.09
2023-01-23T03:44:13.266Z,-0.04
2023-01-23T03:45:06.685Z,0.01
2023-01-23T03:46:00.439Z,0.01
2023-01-23T03:46:53.563Z,0.04
2023-01-23T03:47:45.080Z,0.07
2023-01-23T03:48:36.856Z,0.09
2023-01-23T03:49:29.425Z,0.11
2023-01-23T03:50:23.506Z,0.13
2023-01-23T03:51:15.192Z,0.16
2023-01-23T03:52:06.763Z,0.19
2023-01-23T03:52:58.379Z,0.18
2023-01-23T03:53:50.573Z,0.20
2023-01-23T03:54:42.254Z,0.21
2023-01-23T03:55:34.323Z,0.21
2023-01-23T03:56:25.954Z,0.20
2023-01-23T03:57:17.828Z,0.20
2023-01-23T03:58:11.971Z,0.19
2023-01-23T03:59:06.261Z,0.18
2023-01-23T03:59:58.517Z,0.16
2023-01-23T04:00:55.246Z,0.14
2023-01-23T04:01:47.893Z,0.12
2023-01-23T04:02:39.543Z,0.12
2023-01-23T04:03:31.357Z,0.11
2023-01-23T04:04:23.027Z,0.10
2023-01-23T04:05:15.013Z,0.09
2023-01-23T04:06:06.521Z,0.05
2023-01-23T04:06:57.975Z,0.03
2023-01-23T04:07:53.404Z,-0.01
2023-01-23T04:08:45.013Z,-0.06
2023-01-23T04:09:37.036Z,-0.09
2023-01-23T04:10:29.188Z,-0.13
2023-01-23T04:11:28.152Z,-0.18
2023-01-23T04:12:20.613Z,-0.22
2023-01-23T04:13:13.539Z,-0.26
2023-01-23T04:14:05.571Z,-0.31
2023-01-23T04:14:57.473Z,-0.36
2023-01-23T04:15:49.127Z,-0.40
2023-01-23T04:16:41.159Z,-0.46
2023-01-23T04:17:33.538Z,-0.49
2023-01-23T04:18:25.365Z,-0.53
2023-01-23T04:19:20.961Z,-0.56
2023-01-23T04:20:13.409Z,-0.63
2023-01-23T04:21:06.944Z,-0.66
2023-01-23T04:21:58.948Z,-0.69
2023-01-23T04:22:50.563Z,-0.73
2023-01-23T04:23:44.159Z,-0.77
2023-01-23T04:24:35.808Z,-0.80
2023-01-23T04:25:28.501Z,-0.82
2023-01-23T04:26:20.125Z,-0.81
2023-01-23T04:27:11.717Z,-0.81
2023-01-23T04:28:03.294Z,-0.78
2023-01-23T04:28:55.301Z,-0.76
2023-01-23T04:29:49.997Z,-0.77
2023-01-23T04:30:43.325Z,-0.77
2023-01-23T04:31:47.049Z,-0.77
2023-01-23T04:32:38.791Z,-0.78
2023-01-23T04:33:30.453Z,-0.80
2023-01-23T04:34:23.086Z,-0.80
2023-01-23T04:35:17.122Z,-0.81
2023-01-23T04:36:10.368Z,-0.82
2023-01-23T04:37:01.856Z,-0.80
2023-01-23T04:37:54.517Z,-0.82
2023-01-23T04:38:46.895Z,-0.83
2023-01-23T04:39:44.876Z,-0.87
2023-01-23T04:40:36.702Z,-0.88
2023-01-23T04:41:31.428Z,-0.86
2023-01-23T04:42:27.388Z,-0.85
2023-01-23T04:43:31.979Z,-0.83
2023-01-23T04:44:24.951Z,-0.81
2023-01-23T04:45:55.896Z,-0.79
2023-01-23T04:47:04.231Z,-0.80
2023-01-23T04:47:55.808Z,-0.83
2023-01-23T04:48:48.907Z,-0.84
2023-01-23T04:49:40.831Z,-0.84
2023-01-23T04:50:33.646Z,-0.85
2023-01-23T04:51:25.635Z,-0.85
2023-01-23T04:52:17.149Z,-0.84
2023-01-23T04:53:17.726Z,-0.83
2023-01-23T04:54:10.623Z,-0.86
2023-01-23T04:55:02.784Z,-0.89
2023-01-23T04:55:54.576Z,-0.88
2023-01-23T04:56:47.304Z,-0.85
2023-01-23T04:57:40.862Z,-0.85
2023-01-23T04:58:39.796Z,-0.92
2023-01-23T04:59:33.292Z,-0.96
2023-01-23T05:00:24.951Z,-1.01
2023-01-23T05:01:23.745Z,-0.99
2023-01-23T05:02:21.311Z,-0.99
2023-01-23T05:03:14.231Z,-1.02
2023-01-23T05:04:09.981Z,-1.03
2023-01-23T05:05:02.465Z,-1.02
2023-01-23T05:05:54.146Z,-1.03
2023-01-23T05:06:46.467Z,-1.03
2023-01-23T05:07:39.036Z,-1.02
2023-01-23T05:08:33.771Z,-1.03
2023-01-23T05:09:35.945Z,-1.04
2023-01-23T05:10:27.697Z,-1.07
2023-01-23T05:11:21.705Z,-1.08
2023-01-23T05:12:13.602Z,-1.13
2023-01-23T05:13:06.128Z,-1.12
2023-01-23T05:13:57.880Z,-1.12
2023-01-23T05:14:49.609Z,-1.14
2023-01-23T05:15:42.667Z,-1.17
2023-01-23T05:16:34.424Z,-1.20
2023-01-23T05:17:52.001Z,-1.23
2023-01-23T05:18:44.351Z,-1.27
2023-01-23T05:19:36.191Z,-1.30
2023-01-23T05:20:29.965Z,-1.29
2023-01-23T05:21:25.682Z,-1.29
2023-01-23T05:22:17.928Z,-1.30
2023-01-23T05:23:09.696Z,-1.35
2023-01-23T05:24:10.596Z,-1.40
2023-01-23T05:25:02.882Z,-1.44
2023-01-23T05:25:55.664Z,-1.48
2023-01-23T05:26:48.632Z,-1.49
2023-01-23T05:27:40.971Z,-1.48
2023-01-23T05:28:32.775Z,-1.46
2023-01-23T05:29:24.287Z,-1.44
2023-01-23T05:30:25.143Z,-1.47
2023-01-23T05:31:23.659Z,-1.50
2023-01-23T05:32:35.151Z,-1.50
2023-01-23T05:33:32.808Z,-1.51
2023-01-23T05:34:24.330Z,-1.52
2023-01-23T05:35:16.284Z,-1.56
2023-01-23T05:36:08.842Z,-1.60
2023-01-23T05:37:01.565Z,-1.63
2023-01-23T05:37:54.559Z,-1.67
2023-01-23T05:38:48.886Z,-1.70
2023-01-23T05:39:40.756Z,-1.70
2023-01-23T05:40:38.301Z,-1.71
2023-01-23T05:41:38.666Z,-1.73
2023-01-23T05:42:49.466Z,-1.75
2023-01-23T05:44:07.190Z,-1.78
2023-01-23T05:45:21.551Z,-1.79
2023-01-23T05:46:14.237Z,-1.80
2023-01-23T05:47:15.712Z,-1.83
2023-01-23T05:48:08.485Z,-1.85
2023-01-23T05:49:00.264Z,-1.86
2023-01-23T05:49:51.865Z,-1.89
2023-01-23T05:50:43.377Z,-1.90
2023-01-23T05:51:36.067Z,-1.94
2023-01-23T05:52:29.474Z,-1.95
2023-01-23T05:53:21.007Z,-1.96
2023-01-23T05:54:12.890Z,-1.96
2023-01-23T05:55:08.749Z,-1.97
2023-01-23T05:56:07.983Z,-1.97
2023-01-23T05:57:07.089Z,-1.98
2023-01-23T05:58:17.457Z,-2.00
2023-01-23T05:59:16.063Z,-2.00
2023-01-23T06:00:14.936Z,-2.00
2023-01-23T06:01:06.786Z,-2.02
2023-01-23T06:02:27.812Z,-2.04
2023-01-23T06:03:55.339Z,-2.03
2023-01-23T06:05:08.406Z,-2.04
2023-01-23T06:06:23.016Z,-2.06
2023-01-23T06:07:16.875Z,-2.05
2023-01-23T06:08:08.498Z,-2.00
2023-01-23T06:09:00.455Z,-2.02
2023-01-23T06:09:52.163Z,-2.01
2023-01-23T06:10:43.732Z,-2.02
2023-01-23T06:11:35.698Z,-2.01
2023-01-23T06:12:27.233Z,-2.00
2023-01-23T06:13:19.643Z,-2.00
2023-01-23T06:14:11.620Z,-1.98
2023-01-23T06:15:04.123Z,-1.97
2023-01-23T06:15:56.626Z,-1.98
2023-01-23T06:16:49.604Z,-1.96
2023-01-23T06:17:41.985Z,-1.96
2023-01-23T06:18:33.569Z,-1.95
2023-01-23T06:19:25.293Z,-1.97
2023-01-23T06:20:17.023Z,-1.96
2023-01-23T06:21:10.982Z,-1.95
2023-01-23T06:22:04.161Z,-1.96
2023-01-23T06:23:03.010Z,-1.94
2023-01-23T06:23:54.558Z,-1.92
2023-01-23T06:24:46.231Z,-1.95
2023-01-23T06:25:38.406Z,-1.95
2023-01-23T06:26:32.835Z,-1.97
2023-01-23T06:27:24.443Z,-2.01
2023-01-23T06:28:16.739Z,-2.03
2023-01-23T06:29:09.338Z,-2.06
2023-01-23T06:30:00.849Z,-2.07
2023-01-23T06:30:52.490Z,-2.09
2023-01-23T06:31:51.753Z,-2.08
2023-01-23T06:32:45.287Z,-2.09
2023-01-23T06:33:40.759Z,-2.10
2023-01-23T06:34:36.737Z,-2.11
2023-01-23T06:35:29.931Z,-2.11
2023-01-23T06:36:21.466Z,-2.09
2023-01-23T06:37:13.697Z,-2.10
2023-01-23T06:38:08.361Z,-2.09
2023-01-23T06:39:00.875Z,-2.09
2023-01-23T06:39:58.775Z,-2.09
2023-01-23T06:40:50.468Z,-2.11
2023-01-23T06:41:52.849Z,-2.10
2023-01-23T06:42:50.992Z,-2.06
2023-01-23T06:43:42.819Z,-2.06
2023-01-23T06:44:40.579Z,-2.06
2023-01-23T06:45:32.307Z,-2.03
2023-01-23T06:46:24.303Z,-2.01
2023-01-23T06:47:19.370Z,-2.01
2023-01-23T06:48:18.572Z,-2.00
2023-01-23T06:49:10.577Z,-1.97
2023-01-23T06:50:03.547Z,-1.94
2023-01-23T06:51:01.471Z,-1.91
2023-01-23T06:51:53.276Z,-1.86
2023-01-23T06:52:48.542Z,-1.81
2023-01-23T06:53:40.234Z,-1.77
2023-01-23T06:54:32.350Z,-1.73
2023-01-23T06:55:26.958Z,-1.68
2023-01-23T06:56:18.769Z,-1.63
2023-01-23T06:57:12.910Z,-1.58
2023-01-23T06:58:04.534Z,-1.52
2023-01-23T06:58:56.374Z,-1.48
2023-01-23T06:59:53.101Z,-1.44
2023-01-23T07:00:46.053Z,-1.42
2023-01-23T07:01:56.598Z,-1.35
2023-01-23T07:02:52.993Z,-1.31
2023-01-23T07:03:45.109Z,-1.28
2023-01-23T07:04:36.599Z,-1.22
2023-01-23T07:05:28.552Z,-1.17
2023-01-23T07:06:20.128Z,-1.09
2023-01-23T07:07:12.500Z,-1.02
2023-01-23T07:08:06.037Z,-0.95
2023-01-23T07:08:57.640Z,-0.90
2023-01-23T07:09:49.697Z,-0.86
2023-01-23T07:10:44.700Z,-0.82
2023-01-23T07:11:37.280Z,-0.78
2023-01-23T07:12:30.616Z,-0.70
2023-01-23T07:13:22.526Z,-0.67
2023-01-23T07:14:15.393Z,-0.63
2023-01-23T07:15:09.478Z,-0.57
2023-01-23T07:16:05.578Z,-0.54
2023-01-23T07:16:57.280Z,-0.50
2023-01-23T07:17:49.913Z,-0.50
2023-01-23T07:18:41.422Z,-0.49
2023-01-23T07:19:34.562Z,-0.47
2023-01-23T07:20:29.436Z,-0.42
2023-01-23T07:21:23.117Z,-0.34
2023-01-23T07:22:18.541Z,-0.32
2023-01-23T07:23:10.336Z,-0.30
2023-01-23T07:24:01.843Z,-0.28
2023-01-23T07:24:53.553Z,-0.24
2023-01-23T07:25:45.045Z,-0.23
2023-01-23T07:26:36.677Z,-0.19
2023-01-23T07:27:28.423Z,-0.08
2023-01-23T07:28:19.878Z,-0.06
2023-01-23T07:29:11.651Z,-0.06
2023-01-23T07:30:06.004Z,-0.01
2023-01-23T07:30:59.683Z,-0.01
2023-01-23T07:31:51.394Z,0.03
2023-01-23T07:32:43.483Z,0.06
2023-01-23T07:33:35.017Z,0.08
2023-01-23T07:34:26.966Z,0.13
2023-01-23T07:35:18.547Z,0.16
2023-01-23T07:36:10.468Z,0.12
2023-01-23T07:37:02.431Z,0.18
2023-01-23T07:37:54.069Z,0.14
2023-01-23T07:38:45.585Z,0.14
2023-01-23T07:39:37.192Z,0.17
2023-01-23T07:40:29.160Z,0.17
2023-01-23T07:41:20.791Z,0.21
2023-01-23T07:42:12.284Z,0.26
2023-01-23T07:43:06.473Z,0.24
2023-01-23T07:43:57.979Z,0.24
2023-01-23T07:44:49.432Z,0.26
2023-01-23T07:45:41.033Z,0.32
2023-01-23T07:46:32.857Z,0.37
2023-01-23T07:47:24.683Z,0.38
2023-01-23T07:48:16.724Z,0.39
2023-01-23T07:49:08.190Z,0.38
2023-01-23T07:49:59.843Z,0.36
2023-01-23T07:50:51.451Z,0.34
2023-01-23T07:51:42.953Z,0.33
2023-01-23T07:52:34.668Z,0.33
2023-01-23T07:53:26.116Z,0.36
2023-01-23T07:54:17.819Z,0.34
2023-01-23T07:55:09.823Z,0.34
2023-01-23T07:56:05.143Z,0.35
2023-01-23T07:56:56.660Z,0.38
2023-01-23T07:57:48.331Z,0.40
2023-01-23T07:58:39.974Z,0.41
2023-01-23T07:59:31.444Z,0.41
2023-01-23T08:00:25.244Z,0.42
2023-01-23T08:01:19.198Z,0.43
2023-01-23T08:02:11.273Z,0.46
2023-01-23T08:03:03.138Z,0.47
2023-01-23T08:03:54.884Z,0.47
2023-01-23T08:04:46.345Z,0.47
2023-01-23T08:05:38.272Z,0.50
2023-01-23T08:06:29.762Z,0.50
2023-01-23T08:07:21.658Z,0.51
2023-01-23T08:08:14.121Z,0.56
2023-01-23T08:09:05.809Z,0.55
2023-01-23T08:09:57.613Z,0.55
2023-01-23T08:10:49.242Z,0.54
2023-01-23T08:11:41.042Z,0.53
2023-01-23T08:12:32.779Z,0.52
2023-01-23T08:13:24.302Z,0.54
2023-01-23T08:14:15.885Z,0.57
2023-01-23T08:15:08.622Z,0.59
2023-01-23T08:16:00.257Z,0.61
2023-01-23T08:16:53.282Z,0.62
2023-01-23T08:17:45.458Z,0.66
2023-01-23T08:18:37.026Z,0.69
2023-01-23T08:19:28.618Z,0.72
2023-01-23T08:20:20.439Z,0.75
2023-01-23T08:21:12.497Z,0.80
2023-01-23T08:22:04.984Z,0.82
2023-01-23T08:22:58.987Z,0.84
2023-01-23T08:23:51.077Z,0.85
2023-01-23T08:24:42.609Z,0.85
2023-01-23T08:25:35.018Z,0.88
2023-01-23T08:26:26.520Z,0.89
2023-01-23T08:27:18.026Z,0.89
2023-01-23T08:28:09.484Z,0.93
2023-01-23T08:29:01.252Z,0.98
2023-01-23T08:29:52.742Z,1.02
2023-01-23T08:30:44.218Z,1.04
2023-01-23T08:31:37.074Z,1.06
2023-01-23T08:32:28.894Z,1.08
2023-01-23T08:33:21.345Z,1.09
2023-01-23T08:34:12.859Z,1.14
2023-01-23T08:35:04.928Z,1.12
2023-01-23T08:35:58.588Z,1.17
2023-01-23T08:36:50.431Z,1.14
2023-01-23T08:37:42.393Z,1.14
2023-01-23T08:38:34.138Z,1.13
2023-01-23T08:39:25.690Z,1.13
2023-01-23T08:40:17.463Z,1.12
2023-01-23T08:41:11.683Z,1.13
2023-01-23T08:42:03.314Z,1.12
2023-01-23T08:42:57.239Z,1.14
2023-01-23T08:43:49.891Z,1.17
2023-01-23T08:44:41.419Z,1.20
2023-01-23T08:45:32.900Z,1.23
2023-01-23T08:46:24.538Z,1.23
2023-01-23T08:47:15.995Z,1.24
2023-01-23T08:48:09.192Z,1.32
2023-01-23T08:49:00.667Z,1.42
2023-01-23T08:49:52.197Z,1.45
2023-01-23T08:50:43.883Z,1.44
2023-01-23T08:51:35.520Z,1.44
2023-01-23T08:52:27.232Z,1.47
2023-01-23T08:53:18.704Z,1.50
2023-01-23T08:54:10.548Z,1.52
2023-01-23T08:55:02.152Z,1.57
2023-01-23T08:55:54.233Z,1.57
2023-01-23T08:56:45.847Z,1.59
2023-01-23T08:57:37.707Z,1.62
2023-01-23T08:58:29.440Z,1.62
2023-01-23T08:59:21.092Z,1.59
2023-01-23T09:00:13.206Z,1.58
2023-01-23T09:01:04.882Z,1.56
2023-01-23T09:01:56.451Z,1.56
2023-01-23T09:02:48.145Z,1.59
2023-01-23T09:03:39.994Z,1.67
2023-01-23T09:04:32.209Z,1.68
2023-01-23T09:05:23.667Z,1.65
2023-01-23T09:06:18.410Z,1.69
2023-01-23T09:07:09.924Z,1.73
2023-01-23T09:08:01.495Z,1.81
2023-01-23T09:08:53.032Z,1.81
2023-01-23T09:09:44.535Z,1.81
2023-01-23T09:10:36.394Z,1.82
2023-01-23T09:11:27.827Z,1.87
2023-01-23T09:12:19.716Z,1.87
2023-01-23T09:13:11.747Z,1.91
2023-01-23T09:14:03.189Z,1.91
2023-01-23T09:14:54.698Z,1.90
2023-01-23T09:15:46.154Z,1.89
2023-01-23T09:16:39.116Z,1.89
2023-01-23T09:17:30.624Z,1.93
2023-01-23T09:18:22.985Z,2.01
2023-01-23T09:19:15.708Z,2.00
2023-01-23T09:20:08.708Z,2.02
2023-01-23T09:21:00.349Z,1.99
2023-01-23T09:21:57.181Z,2.02
2023-01-23T09:22:48.654Z,2.01
2023-01-23T09:23:40.325Z,2.00
2023-01-23T09:24:31.812Z,2.00
2023-01-23T09:25:23.555Z,2.01
2023-01-23T09:26:15.605Z,2.00
2023-01-23T09:27:07.496Z,1.97
2023-01-23T09:27:59.162Z,1.99
2023-01-23T09:28:51.083Z,1.99
2023-01-23T09:29:42.770Z,2.00
2023-01-23T09:30:35.230Z,2.01
2023-01-23T09:31:26.765Z,2.03
2023-01-23T09:32:18.337Z,2.08
2023-01-23T09:33:10.015Z,2.13
2023-01-23T09:34:03.260Z,2.13
2023-01-23T09:34:55.157Z,2.15
2023-01-23T09:35:51.573Z,2.23
2023-01-23T09:36:43.799Z,2.25
2023-01-23T09:37:58.541Z,2.28
2023-01-23T09:38:50.683Z,2.25
2023-01-23T09:39:44.227Z,2.24
2023-01-23T09:40:44.853Z,2.24
2023-01-23T09:41:39.082Z,2.25
2023-01-23T09:42:34.620Z,2.23
2023-01-23T09:43:26.111Z,2.18
2023-01-23T09:44:35.894Z,2.11
2023-01-23T09:45:29.612Z,2.17
2023-01-23T09:46:39.354Z,2.22
2023-01-23T09:47:53.298Z,2.28
2023-01-23T09:48:46.737Z,2.35
2023-01-23T09:49:46.438Z,2.32
2023-01-23T09:50:52.295Z,2.37
2023-01-23T09:52:03.437Z,2.41
2023-01-23T09:53:11.998Z,2.32
2023-01-23T09:54:34.665Z,2.32
2023-01-23T09:55:57.954Z,2.26
2023-01-23T09:56:52.431Z,2.26
2023-01-23T09:57:55.210Z,2.27
2023-01-23T09:59:07.527Z,2.24
2023-01-23T10:00:13.720Z,2.26
2023-01-23T10:01:13.458Z,2.25
2023-01-23T10:02:20.066Z,2.27
2023-01-23T10:03:15.955Z,2.23
2023-01-23T10:04:11.945Z,2.22
2023-01-23T10:05:03.845Z,2.23
2023-01-23T10:06:16.629Z,2.21
2023-01-23T10:07:26.243Z,2.28
2023-01-23T10:08:42.798Z,2.29
2023-01-23T10:10:08.202Z,2.43
2023-01-23T10:11:10.720Z,2.41
2023-01-23T10:12:32.792Z,2.42
2023-01-23T10:13:59.393Z,2.43
2023-01-23T10:15:05.830Z,2.49
2023-01-23T10:16:12.621Z,2.57
2023-01-23T10:17:13.695Z,2.65
2023-01-23T10:18:32.781Z,2.70
2023-01-23T10:20:03.583Z,2.74
2023-01-23T10:20:55.186Z,2.74
2023-01-23T10:22:04.351Z,2.75
2023-01-23T10:23:07.537Z,2.72
2023-01-23T10:24:26.477Z,2.70
2023-01-23T10:25:24.289Z,2.76
2023-01-23T10:26:23.424Z,2.84
2023-01-23T10:27:20.328Z,2.88
2023-01-23T10:28:26.650Z,2.88
2023-01-23T10:29:44.996Z,2.97
2023-01-23T10:30:38.671Z,3.03
2023-01-23T10:31:48.426Z,3.03
2023-01-23T10:32:51.023Z,2.94
2023-01-23T10:33:56.386Z,2.88
2023-01-23T10:35:02.386Z,2.85
2023-01-23T10:36:04.578Z,2.81
2023-01-23T10:37:31.545Z,2.84
2023-01-23T10:38:35.372Z,2.91
2023-01-23T10:39:35.181Z,2.93
2023-01-23T10:40:46.927Z,2.96
2023-01-23T10:41:39.157Z,2.92
2023-01-23T10:42:30.798Z,2.95
2023-01-23T10:43:22.620Z,2.96
2023-01-23T10:44:19.955Z,2.98
2023-01-23T10:45:19.685Z,2.99
2023-01-23T10:46:18.059Z,3.00
2023-01-23T10:47:21.225Z,3.13
2023-01-23T10:48:45.615Z,3.10
2023-01-23T10:49:45.307Z,3.14
2023-01-23T10:50:39.453Z,3.17
2023-01-23T10:51:45.925Z,3.26
2023-01-23T10:52:46.037Z,3.28
2023-01-23T10:53:37.533Z,3.32
2023-01-23T10:54:32.656Z,3.36
2023-01-23T10:55:29.879Z,3.38
2023-01-23T10:56:21.771Z,3.40
2023-01-23T10:57:13.181Z,3.42
2023-01-23T10:58:06.884Z,3.42
2023-01-23T10:59:02.195Z,3.42
2023-01-23T11:00:20.353Z,3.45
2023-01-23T11:01:34.062Z,3.50
2023-01-23T11:02:34.880Z,3.47
2023-01-23T11:03:32.921Z,3.44
2023-01-23T11:04:28.377Z,3.42
2023-01-23T11:05:52.171Z,3.30
2023-01-23T11:06:45.294Z,3.36
2023-01-23T11:07:38.263Z,3.39
2023-01-23T11:08:38.528Z,3.43
2023-01-23T11:09:31.272Z,3.42
2023-01-23T11:10:23.632Z,3.45
2023-01-23T11:11:15.236Z,3.40
2023-01-23T11:12:14.494Z,3.37
2023-01-23T11:13:30.791Z,3.38
2023-01-23T11:14:24.200Z,3.36
2023-01-23T11:15:26.362Z,3.38
2023-01-23T11:16:22.917Z,3.42
2023-01-23T11:17:16.995Z,3.41
2023-01-23T11:18:32.519Z,3.46
2023-01-23T11:19:24.176Z,3.46
2023-01-23T11:20:37.113Z,3.47
2023-01-23T11:21:33.945Z,3.44
2023-01-23T11:22:39.076Z,3.43
2023-01-23T11:23:33.684Z,3.52
2023-01-23T11:24:38.616Z,3.57
2023-01-23T11:25:41.216Z,3.57
2023-01-23T11:26:35.201Z,3.62
2023-01-23T11:27:31.920Z,3.58
2023-01-23T11:28:36.355Z,3.60
2023-01-23T11:29:30.340Z,3.61
2023-01-23T11:30:39.505Z,3.62
2023-01-23T11:31:32.155Z,3.69
2023-01-23T11:32:25.139Z,3.73
2023-01-23T11:33:25.563Z,3.76
2023-01-23T11:34:24.548Z,3.78
2023-01-23T11:35:24.406Z,3.77
2023-01-23T11:36:19.425Z,3.81
2023-01-23T11:37:31.323Z,3.91
2023-01-23T11:38:30.844Z,3.88
2023-01-23T11:39:56.055Z,3.91
2023-01-23T11:40:48.099Z,3.97
2023-01-23T11:41:41.256Z,4.00
2023-01-23T11:42:40.227Z,4.02
2023-01-23T11:43:31.925Z,4.04
2023-01-23T11:44:24.548Z,4.07
2023-01-23T11:45:39.095Z,4.09
2023-01-23T11:46:52.658Z,4.05
2023-01-23T11:47:58.909Z,4.16
2023-01-23T11:49:02.702Z,4.18
2023-01-23T11:50:31.509Z,4.28
2023-01-23T11:51:35.326Z,4.26
2023-01-23T11:52:38.693Z,4.13
2023-01-23T11:54:00.477Z,4.24
2023-01-23T11:55:11.571Z,4.13
2023-01-23T11:56:57.487Z,4.24
2023-01-23T11:58:27.103Z,4.29
2023-01-23T11:59:41.950Z,4.34
2023-01-23T12:00:44.546Z,4.31
2023-01-23T12:02:23.665Z,4.29
2023-01-23T12:03:49.808Z,4.44
2023-01-23T12:05:10.948Z,4.38
2023-01-23T12:06:21.452Z,4.38
2023-01-23T12:07:22.763Z,4.41
2023-01-23T12:08:38.087Z,4.36
2023-01-23T12:09:47.483Z,4.36
2023-01-23T12:10:49.903Z,4.34
2023-01-23T12:11:59.891Z,4.28
2023-01-23T12:13:02.025Z,4.21
2023-01-23T12:14:02.553Z,4.15
2023-01-23T12:15:10.439Z,4.11
2023-01-23T12:16:11.333Z,4.05
2023-01-23T12:17:37.461Z,4.12
2023-01-23T12:18:41.887Z,4.12
2023-01-23T12:19:51.611Z,4.17